Time;durP1;ratioP1;P1;durP2;ratioP2;P2;SDS_P1;SDS_P2;PMS_P1;PMS_P2;Temp;Humidity;BMP_temperature;BMP_pressure;BME280_temperature;BME280_humidity;BME280_pressure;Samples;Min_cycle;Max_cycle;Signal;HPM_P1;HPM_P2
2021/08/07 00:01:25;;;;;;;3.15;2.70;;;22.70;77.80;;;;;;4206641;28;20040;-56
2021/08/07 00:03:49;;;;;;;9.65;3.15;;;22.70;77.90;;;;;;4208368;28;20132;-55
2021/08/07 00:06:19;;;;;;;3.45;1.90;;;22.70;77.90;;;;;;4210526;28;20044;-52
2021/08/07 00:08:41;;;;;;;4.05;2.33;;;22.70;77.80;;;;;;4210391;28;20535;-55
2021/08/07 00:11:03;;;;;;;2.78;1.90;;;22.70;77.90;;;;;;4210781;28;20055;-55
2021/08/07 00:13:26;;;;;;;7.40;2.65;;;22.70;77.90;;;;;;4210184;28;20422;-55
2021/08/07 00:15:48;;;;;;;6.80;2.30;;;22.70;78.00;;;;;;4210698;28;20048;-53
2021/08/07 00:18:10;;;;;;;4.13;2.30;;;22.70;78.00;;;;;;4210135;28;20468;-57
2021/08/07 00:20:33;;;;;;;4.25;2.67;;;22.70;78.00;;;;;;4210549;28;20422;-58
2021/08/07 00:22:55;;;;;;;5.13;2.95;;;22.70;78.00;;;;;;4209805;28;20048;-55
2021/08/07 00:25:18;;;;;;;2.58;2.38;;;22.60;78.80;;;;;;4210479;28;20154;-52
2021/08/07 00:27:40;;;;;;;4.00;2.28;;;22.60;77.90;;;;;;4210336;28;20418;-55
2021/08/07 00:30:02;;;;;;;5.53;2.15;;;22.60;77.90;;;;;;4208863;28;20516;-53
2021/08/07 00:32:24;;;;;;;7.35;2.60;;;22.70;78.00;;;;;;4209945;28;20056;-54
2021/08/07 00:34:47;;;;;;;5.72;2.25;;;22.60;78.00;;;;;;4210000;28;20047;-56
2021/08/07 00:37:11;;;;;;;7.72;3.08;;;22.60;78.00;;;;;;4208807;28;20494;-52
2021/08/07 00:39:45;;;;;;;4.38;2.25;;;22.60;78.00;;;;;;4208678;28;20048;-52
2021/08/07 00:42:07;;;;;;;4.68;2.20;;;22.60;78.00;;;;;;4208301;28;20048;-54
2021/08/07 00:44:29;;;;;;;4.13;2.30;;;22.60;78.90;;;;;;4208609;28;20452;-55
2021/08/07 00:46:52;;;;;;;5.93;2.92;;;22.60;79.00;;;;;;4208705;28;20054;-50
2021/08/07 00:49:15;;;;;;;7.07;2.38;;;22.60;78.10;;;;;;4209731;28;20044;-54
2021/08/07 00:51:42;;;;;;;3.67;2.20;;;22.60;78.10;;;;;;4207505;28;22027;-51
2021/08/07 00:54:09;;;;;;;3.60;2.53;;;22.60;79.00;;;;;;4208615;28;20043;-54
2021/08/07 00:56:32;;;;;;;4.70;2.80;;;22.60;78.20;;;;;;4208295;28;20055;-58
2021/08/07 00:59:07;;;;;;;4.65;2.20;;;22.60;78.10;;;;;;4208056;28;20068;-58
2021/08/07 01:01:37;;;;;;;4.55;2.28;;;22.60;78.20;;;;;;4207869;28;20059;-56
2021/08/07 01:04:03;;;;;;;;;;;22.60;78.20;;;;;;4208323;28;20071;-58
2021/08/07 01:06:40;;;;;;;7.28;3.28;;;22.60;78.30;;;;;;4209935;28;19935;-52
2021/08/07 01:09:12;;;;;;;4.50;2.65;;;22.50;78.20;;;;;;4208297;28;20052;-52
2021/08/07 01:11:42;;;;;;;3.72;2.53;;;22.50;79.10;;;;;;4207515;28;20498;-54
2021/08/07 01:14:08;;;;;;;;;;;22.50;78.20;;;;;;4209080;28;20046;-55
2021/08/07 01:16:32;;;;;;;4.40;2.90;;;22.50;78.40;;;;;;4206807;28;19923;-59
2021/08/07 01:19:00;;;;;;;2.65;2.25;;;22.50;78.40;;;;;;4206856;28;20086;-54
2021/08/07 01:21:45;;;;;;;5.45;2.63;;;22.50;78.40;;;;;;4207592;28;20055;-52
2021/08/07 01:24:15;;;;;;;2.63;2.35;;;22.50;78.50;;;;;;4207974;28;20126;-54
2021/08/07 01:26:50;;;;;;;4.53;2.60;;;22.50;78.50;;;;;;4207766;28;20811;-54
2021/08/07 01:29:17;;;;;;;3.10;2.38;;;22.50;78.50;;;;;;4191184;28;20576;-55
2021/08/07 01:31:47;;;;;;;3.20;2.40;;;22.50;78.50;;;;;;4196348;28;20055;-55
2021/08/07 01:34:15;;;;;;;3.78;2.53;;;22.50;78.50;;;;;;4207820;28;20584;-54
2021/08/07 01:36:40;;;;;;;4.13;2.50;;;22.50;78.50;;;;;;4208104;28;20048;-55
2021/08/07 01:39:08;;;;;;;4.85;3.15;;;22.50;78.50;;;;;;4207761;28;20069;-55
2021/08/07 01:41:30;;;;;;;3.17;2.28;;;22.50;78.50;;;;;;4207417;28;20048;-55
2021/08/07 01:44:06;;;;;;;3.70;2.33;;;22.50;78.50;;;;;;4207332;28;20362;-55
2021/08/07 01:46:36;;;;;;;2.90;2.50;;;22.50;78.50;;;;;;4207432;28;20044;-54
2021/08/07 01:49:04;;;;;;;4.65;2.72;;;22.50;78.50;;;;;;4207593;28;20047;-53
2021/08/07 01:51:42;;;;;;;4.63;2.67;;;22.50;78.60;;;;;;4207543;28;20059;-54
2021/08/07 01:54:06;;;;;;;6.25;3.22;;;22.40;79.30;;;;;;4207537;28;20490;-55
2021/08/07 01:56:34;;;;;;;4.78;2.53;;;22.50;78.60;;;;;;4207847;28;20059;-55
2021/08/07 01:59:04;;;;;;;3.55;2.20;;;22.40;78.50;;;;;;4207381;28;20533;-56
2021/08/07 02:01:31;;;;;;;6.75;2.90;;;22.40;78.60;;;;;;4207065;28;20044;-55
2021/08/07 02:03:54;;;;;;;5.20;2.08;;;22.50;78.60;;;;;;4207409;28;20064;-53
2021/08/07 02:06:20;;;;;;;4.13;1.73;;;22.40;78.60;;;;;;4208895;28;20048;-54
2021/08/07 02:08:43;;;;;;;4.90;2.08;;;22.40;79.40;;;;;;4208493;28;20044;-50
2021/08/07 02:11:12;;;;;;;4.05;2.20;;;22.40;78.60;;;;;;4207168;28;20064;-55
2021/08/07 02:13:35;;;;;;;4.20;2.20;;;22.40;79.50;;;;;;4208712;28;20394;-54
2021/08/07 02:16:08;;;;;;;3.35;1.98;;;22.40;78.60;;;;;;4206512;28;20043;-53
2021/08/07 02:18:33;;;;;;;2.60;1.70;;;22.40;78.60;;;;;;4206720;28;20105;-51
2021/08/07 02:20:58;;;;;;;3.30;2.10;;;22.40;78.60;;;;;;4206773;28;20048;-53
2021/08/07 02:23:24;;;;;;;4.15;2.10;;;22.40;78.60;;;;;;4206886;28;20051;-55
2021/08/07 02:25:52;;;;;;;1.70;1.60;;;22.40;78.60;;;;;;4206920;28;20040;-56
2021/08/07 02:28:20;;;;;;;4.82;1.85;;;22.40;78.50;;;;;;4204600;28;20044;-53
2021/08/07 02:30:43;;;;;;;4.57;1.70;;;22.40;78.50;;;;;;4190612;28;20106;-56
2021/08/07 02:33:09;;;;;;;4.45;1.80;;;22.40;78.40;;;;;;4199758;28;20048;-55
2021/08/07 02:35:34;;;;;;;4.88;1.75;;;22.40;78.50;;;;;;4191133;28;20048;-54
2021/08/07 02:37:57;;;;;;;2.83;1.60;;;22.40;78.50;;;;;;4191232;28;20669;-55
2021/08/07 02:40:21;;;;;;;2.88;1.70;;;22.40;78.40;;;;;;4190504;28;20051;-55
2021/08/07 02:42:48;;;;;;;2.97;1.55;;;22.40;78.30;;;;;;4189929;28;20047;-54
2021/08/07 02:45:11;;;;;;;4.03;1.60;;;22.40;79.20;;;;;;4189916;28;20052;-55
2021/08/07 02:47:34;;;;;;;2.60;1.80;;;22.40;78.30;;;;;;4189434;28;20202;-53
2021/08/07 02:49:59;;;;;;;3.60;1.73;;;22.40;78.20;;;;;;4190025;28;20118;-53
2021/08/07 02:52:23;;;;;;;3.58;1.38;;;22.40;78.20;;;;;;4206932;28;20066;-54
2021/08/07 02:54:47;;;;;;;1.55;1.40;;;22.40;78.10;;;;;;4205319;28;20472;-53
2021/08/07 02:57:09;;;;;;;1.70;1.60;;;22.30;78.10;;;;;;4206597;28;20056;-54
2021/08/07 02:59:31;;;;;;;5.55;1.60;;;22.40;78.10;;;;;;4206407;28;20039;-54
2021/08/07 03:01:53;;;;;;;4.80;2.00;;;22.30;78.00;;;;;;4206454;28;20052;-52
2021/08/07 03:04:16;;;;;;;3.60;1.75;;;22.40;78.00;;;;;;4206389;28;20056;-54
2021/08/07 03:06:39;;;;;;;3.00;1.90;;;22.30;78.00;;;;;;4189636;28;20060;-55
2021/08/07 03:09:02;;;;;;;3.90;1.52;;;22.30;77.90;;;;;;4189965;28;20037;-53
2021/08/07 03:11:25;;;;;;;2.70;1.50;;;22.30;77.90;;;;;;4189799;28;20458;-55
2021/08/07 03:13:54;;;;;;;3.17;1.80;;;22.30;77.90;;;;;;4189443;28;20052;-55
2021/08/07 03:16:19;;;;;;;2.75;1.45;;;22.30;77.90;;;;;;4189616;28;20076;-57
2021/08/07 03:18:43;;;;;;;2.88;1.67;;;22.30;77.90;;;;;;4189894;28;20059;-52
2021/08/07 03:21:06;;;;;;;3.33;1.88;;;22.30;77.90;;;;;;4194806;28;20078;-55
2021/08/07 03:23:37;;;;;;;3.35;2.13;;;22.30;77.80;;;;;;4205295;28;20066;-54
2021/08/07 03:26:02;;;;;;;6.22;2.22;;;22.30;77.80;;;;;;4206007;28;20098;-54
2021/08/07 03:28:24;;;;;;;2.20;1.80;;;22.30;77.80;;;;;;4207709;28;20127;-52
2021/08/07 03:30:46;;;;;;;3.92;1.60;;;22.30;77.80;;;;;;4206090;28;20062;-54
2021/08/07 03:33:09;;;;;;;2.92;1.55;;;22.30;77.80;;;;;;4206141;28;20132;-55
2021/08/07 03:35:31;;;;;;;4.00;1.65;;;22.30;77.80;;;;;;4189302;28;20091;-54
2021/08/07 03:37:54;;;;;;;2.75;1.70;;;22.30;77.90;;;;;;4189441;28;20058;-52
2021/08/07 03:40:17;;;;;;;3.42;1.70;;;22.30;77.80;;;;;;4192787;28;20130;-55
2021/08/07 03:42:44;;;;;;;3.88;1.77;;;22.30;77.80;;;;;;4192325;28;20494;-53
2021/08/07 03:45:12;;;;;;;3.63;1.77;;;22.20;77.60;;;;;;4193149;28;20044;-56
2021/08/07 03:47:44;;;;;;;4.78;1.67;;;22.20;77.60;;;;;;4192732;28;20129;-51
2021/08/07 03:50:09;;;;;;;5.95;1.90;;;22.30;77.60;;;;;;4192673;28;20068;-54
2021/08/07 03:52:31;;;;;;;2.53;1.23;;;22.20;77.60;;;;;;4192842;28;20541;-56
2021/08/07 03:54:53;;;;;;;4.40;2.05;;;22.20;77.60;;;;;;4194238;28;20072;-52
2021/08/07 03:57:15;;;;;;;4.15;1.85;;;22.20;77.50;;;;;;4192552;28;20052;-56
2021/08/07 03:59:39;;;;;;;4.95;2.38;;;22.20;77.50;;;;;;4194205;28;20052;-55
2021/08/07 04:02:01;;;;;;;3.28;1.98;;;22.20;77.40;;;;;;4206641;28;20473;-49
2021/08/07 04:04:23;;;;;;;2.97;1.95;;;22.20;77.40;;;;;;4210663;28;20410;-55
2021/08/07 04:06:45;;;;;;;3.15;2.00;;;22.20;77.40;;;;;;4210692;28;20040;-55
2021/08/07 04:09:13;;;;;;;4.07;1.67;;;22.20;77.40;;;;;;4210534;28;20052;-56
2021/08/07 04:11:36;;;;;;;6.20;1.70;;;22.20;77.30;;;;;;4210016;28;20131;-53
2021/08/07 04:13:59;;;;;;;3.13;1.75;;;22.20;77.30;;;;;;4210482;28;20439;-54
2021/08/07 04:16:23;;;;;;;3.50;1.63;;;22.10;77.30;;;;;;4209059;28;20040;-53
2021/08/07 04:18:47;;;;;;;6.03;2.00;;;22.10;77.20;;;;;;4209245;28;20060;-53
2021/08/07 04:21:10;;;;;;;2.85;1.60;;;22.10;77.20;;;;;;4208563;28;20036;-51
2021/08/07 04:23:33;;;;;;;2.63;1.65;;;22.20;77.20;;;;;;4208682;28;20083;-50
2021/08/07 04:25:55;;;;;;;4.45;1.60;;;22.20;77.20;;;;;;4208879;28;20426;-54
2021/08/07 04:28:18;;;;;;;2.13;1.67;;;22.10;77.20;;;;;;4208766;28;20369;-53
2021/08/07 04:30:45;;;;;;;3.47;1.83;;;22.10;77.20;;;;;;4207975;28;20081;-52
2021/08/07 04:33:09;;;;;;;4.00;1.40;;;22.10;77.10;;;;;;4210704;28;20060;-53
2021/08/07 04:35:36;;;;;;;6.13;2.53;;;22.10;77.20;;;;;;4192012;28;20048;-55
2021/08/07 04:37:59;;;;;;;4.65;2.05;;;22.10;77.10;;;;;;4193483;28;20056;-51
2021/08/07 04:40:31;;;;;;;9.52;2.00;;;22.10;77.10;;;;;;4194554;28;20545;-51
2021/08/07 04:42:59;;;;;;;4.30;1.75;;;22.10;77.10;;;;;;4209134;28;20391;-52
2021/08/07 04:45:22;;;;;;;3.38;1.73;;;22.10;77.10;;;;;;4208494;28;20039;-52
2021/08/07 04:47:56;;;;;;;3.35;1.52;;;22.10;77.10;;;;;;4208759;28;20063;-53
2021/08/07 04:50:24;;;;;;;5.35;1.77;;;22.10;77.00;;;;;;4207589;28;20490;-56
2021/08/07 04:52:46;;;;;;;3.55;1.73;;;22.10;77.10;;;;;;4208691;28;20135;-51
2021/08/07 04:55:09;;;;;;;3.38;1.90;;;22.10;77.00;;;;;;4208751;28;20116;-51
2021/08/07 04:57:32;;;;;;;4.80;1.70;;;22.10;76.80;;;;;;4208976;28;20094;-49
2021/08/07 04:59:54;;;;;;;4.90;1.58;;;22.10;76.80;;;;;;4208923;28;20060;-55
2021/08/07 05:02:15;;;;;;;5.22;1.90;;;22.10;76.60;;;;;;4192709;28;20063;-53
2021/08/07 05:04:38;;;;;;;2.50;1.33;;;22.10;76.60;;;;;;4191798;28;20094;-53
2021/08/07 05:07:01;;;;;;;3.22;1.70;;;22.10;76.60;;;;;;4191678;28;20075;-54
2021/08/07 05:09:24;;;;;;;4.13;1.80;;;22.10;76.60;;;;;;4197705;28;20048;-53
2021/08/07 05:12:09;;;;;;;5.05;2.10;;;22.10;76.80;;;;;;4192579;28;20051;-54
2021/08/07 05:14:35;;;;;;;4.53;1.85;;;22.10;76.60;;;;;;4191601;28;20044;-52
2021/08/07 05:16:58;;;;;;;7.07;2.08;;;22.10;76.50;;;;;;4222345;28;20051;-53
2021/08/07 05:19:20;;;;;;;4.82;1.75;;;22.10;76.50;;;;;;4209908;28;20044;-51
2021/08/07 05:21:43;;;;;;;6.15;2.15;;;22.10;76.50;;;;;;4208318;28;20044;-53
2021/08/07 05:24:06;;;;;;;5.85;1.90;;;22.10;76.50;;;;;;4208034;28;20490;-49
2021/08/07 05:26:29;;;;;;;3.97;1.88;;;22.10;76.50;;;;;;4209536;28;20036;-54
2021/08/07 05:28:51;;;;;;;4.93;2.10;;;22.10;76.50;;;;;;4209274;28;20414;-57
2021/08/07 05:31:13;;;;;;;4.00;2.03;;;22.10;76.70;;;;;;4207756;28;20036;-56
2021/08/07 05:33:35;;;;;;;3.13;1.67;;;22.20;77.00;;;;;;4207850;28;20048;-56
2021/08/07 05:36:00;;;;;;;3.35;2.00;;;22.20;76.70;;;;;;4207401;28;20044;-54
2021/08/07 05:38:22;;;;;;;6.80;2.10;;;22.20;76.50;;;;;;4209260;28;20048;-54
2021/08/07 05:40:46;;;;;;;7.40;2.20;;;22.20;76.40;;;;;;4207767;28;20130;-54
2021/08/07 05:43:08;;;;;;;7.97;2.15;;;22.20;77.40;;;;;;4209239;28;20113;-52
2021/08/07 05:45:30;;;;;;;7.82;2.47;;;22.10;76.50;;;;;;4207033;28;20498;-53
2021/08/07 05:47:52;;;;;;;9.32;2.55;;;22.10;76.60;;;;;;4205539;28;20473;-53
2021/08/07 05:50:14;;;;;;;5.15;1.98;;;22.10;76.50;;;;;;4207425;28;20064;-52
2021/08/07 05:52:37;;;;;;;5.03;2.63;;;22.10;76.50;;;;;;4207753;28;20056;-55
2021/08/07 05:54:59;;;;;;;4.53;2.15;;;22.10;76.60;;;;;;4207656;28;20481;-52
2021/08/07 05:57:23;;;;;;;5.85;1.85;;;22.10;76.50;;;;;;4207919;28;20481;-52
2021/08/07 05:59:45;;;;;;;7.30;2.45;;;22.10;76.60;;;;;;4207589;28;20051;-55
2021/08/07 06:02:07;;;;;;;6.05;2.33;;;22.10;76.60;;;;;;4191441;28;20063;-52
2021/08/07 06:04:30;;;;;;;15.00;2.47;;;22.10;76.60;;;;;;4200588;28;20688;-55
2021/08/07 06:06:56;;;;;;;7.15;2.70;;;22.00;76.50;;;;;;4207637;28;20135;-52
2021/08/07 06:09:17;;;;;;;5.03;2.28;;;22.00;76.60;;;;;;4208644;28;20048;-55
2021/08/07 06:11:41;;;;;;;4.97;2.20;;;22.00;77.50;;;;;;4207146;28;20130;-52
2021/08/07 06:14:08;;;;;;;5.72;2.22;;;22.00;77.50;;;;;;4208214;28;20136;-53
2021/08/07 06:16:30;;;;;;;9.13;2.60;;;22.00;76.60;;;;;;4206964;28;20121;-54
2021/08/07 06:18:55;;;;;;;4.93;2.28;;;22.00;76.60;;;;;;4207080;28;20123;-56
2021/08/07 06:21:17;;;;;;;7.40;2.30;;;22.00;76.60;;;;;;4207537;28;20135;-56
2021/08/07 06:23:41;;;;;;;9.57;3.08;;;22.00;76.60;;;;;;4207174;28;20056;-51
2021/08/07 06:26:03;;;;;;;7.90;2.80;;;22.00;76.50;;;;;;4207067;28;20040;-49
2021/08/07 06:28:27;;;;;;;5.85;2.47;;;22.00;76.40;;;;;;4206953;28;20044;-54
2021/08/07 06:30:50;;;;;;;6.80;2.10;;;22.10;76.50;;;;;;4208378;28;20048;-51
2021/08/07 06:33:17;;;;;;;5.55;2.38;;;22.10;76.30;;;;;;4206616;28;20135;-52
2021/08/07 06:35:40;;;;;;;4.95;1.73;;;22.10;76.30;;;;;;4206913;28;20048;-53
2021/08/07 06:38:02;;;;;;;7.00;2.05;;;22.10;76.20;;;;;;4207329;28;20460;-53
2021/08/07 06:40:26;;;;;;;7.50;2.35;;;22.10;76.10;;;;;;4206638;27;20044;-53
2021/08/07 06:42:48;;;;;;;7.57;2.17;;;22.20;77.50;;;;;;4208246;27;20109;-55
2021/08/07 06:45:31;;;;;;;9.43;2.55;;;22.30;82.30;;;;;;4207916;27;20097;-55
2021/08/07 06:47:59;;;;;;;5.13;2.05;;;22.30;81.20;;;;;;4206561;27;20055;-50
2021/08/07 06:50:22;;;;;;;8.32;2.38;;;22.30;79.80;;;;;;4205006;27;20055;-54
2021/08/07 06:52:45;;;;;;;5.68;2.00;;;22.30;80.30;;;;;;4206099;28;20514;-54
2021/08/07 06:55:08;;;;;;;6.65;1.88;;;22.30;78.70;;;;;;4202286;28;20125;-51
2021/08/07 06:57:30;;;;;;;3.13;1.85;;;22.20;77.90;;;;;;4201928;28;20454;-52
2021/08/07 06:59:53;;;;;;;5.85;2.03;;;22.20;76.60;;;;;;4206091;28;21034;-53
2021/08/07 07:02:17;;;;;;;7.75;1.70;;;22.20;76.20;;;;;;4206696;28;20044;-55
2021/08/07 07:04:42;;;;;;;6.00;1.88;;;22.10;75.70;;;;;;4206843;28;20064;-48
2021/08/07 07:07:04;;;;;;;4.32;1.92;;;22.10;76.20;;;;;;4208196;28;20062;-51
2021/08/07 07:09:27;;;;;;;7.53;2.20;;;22.10;74.30;;;;;;4206426;28;20044;-53
2021/08/07 07:11:49;;;;;;;8.23;2.40;;;22.10;74.10;;;;;;4197840;28;20122;-52
2021/08/07 07:14:14;;;;;;;6.47;2.10;;;22.00;73.70;;;;;;4206812;28;20468;-54
2021/08/07 07:16:36;;;;;;;5.55;2.15;;;22.00;73.70;;;;;;4206040;28;20056;-54
2021/08/07 07:18:59;;;;;;;8.45;2.17;;;22.00;73.50;;;;;;4203014;28;20429;-50
2021/08/07 07:21:23;;;;;;;5.97;2.05;;;22.00;73.20;;;;;;4204460;28;20071;-51
2021/08/07 07:23:47;;;;;;;3.72;1.80;;;22.00;73.10;;;;;;4206055;28;20051;-51
2021/08/07 07:26:08;;;;;;;6.05;2.20;;;22.00;72.90;;;;;;4206913;28;20202;-48
2021/08/07 07:28:31;;;;;;;4.28;1.95;;;21.90;72.70;;;;;;4206285;28;20044;-48
2021/08/07 07:30:54;;;;;;;7.60;2.47;;;21.90;72.40;;;;;;4206423;28;20063;-49
2021/08/07 07:33:16;;;;;;;5.78;2.60;;;21.90;72.20;;;;;;4207005;28;20060;-50
2021/08/07 07:35:38;;;;;;;6.65;2.75;;;21.90;72.00;;;;;;4199791;28;20044;-52
2021/08/07 07:38:02;;;;;;;4.78;2.13;;;21.90;72.10;;;;;;4203606;28;20121;-48
2021/08/07 07:40:25;;;;;;;6.93;2.13;;;21.90;72.10;;;;;;4197388;28;20059;-50
2021/08/07 07:42:47;;;;;;;2.95;1.70;;;21.90;72.00;;;;;;4207785;28;20526;-47
2021/08/07 07:45:10;;;;;;;5.45;1.92;;;22.00;72.00;;;;;;4205644;28;20489;-50
2021/08/07 07:47:35;;;;;;;6.25;1.90;;;22.00;72.10;;;;;;4206210;28;20129;-52
2021/08/07 07:49:57;;;;;;;5.75;1.80;;;22.00;72.10;;;;;;4204916;28;20044;-50
2021/08/07 07:52:19;;;;;;;6.53;1.83;;;22.00;72.20;;;;;;4207525;28;20048;-51
2021/08/07 07:54:43;;;;;;;4.25;2.15;;;22.00;72.10;;;;;;4205613;28;20039;-51
2021/08/07 07:57:05;;;;;;;6.50;1.67;;;22.00;71.90;;;;;;4205533;28;20402;-48
2021/08/07 07:59:28;;;;;;;9.85;2.55;;;22.10;71.90;;;;;;4205940;28;20052;-51
2021/08/07 08:01:50;;;;;;;4.95;1.95;;;22.10;71.50;;;;;;4189184;28;20045;-49
2021/08/07 08:04:13;;;;;;;5.60;2.40;;;22.10;71.40;;;;;;4188743;28;20503;-50
2021/08/07 08:06:35;;;;;;;3.70;1.58;;;22.10;71.20;;;;;;4204935;28;20071;-50
2021/08/07 08:08:58;;;;;;;4.40;1.85;;;22.10;71.00;;;;;;4205617;28;20427;-48
2021/08/07 08:11:22;;;;;;;6.30;1.85;;;22.20;70.60;;;;;;4204346;28;20055;-54
2021/08/07 08:13:44;;;;;;;4.60;1.40;;;22.20;70.30;;;;;;4205943;28;20481;-47
2021/08/07 08:16:07;;;;;;;3.25;1.55;;;22.30;70.50;;;;;;4207110;28;20063;-48
2021/08/07 08:18:30;;;;;;;6.47;2.13;;;22.30;71.20;;;;;;4206253;28;20127;-48
2021/08/07 08:20:53;;;;;;;3.95;1.50;;;22.30;70.40;;;;;;4205558;28;20066;-53
2021/08/07 08:23:16;;;;;;;7.18;1.80;;;22.30;70.30;;;;;;4205815;28;20106;-47
2021/08/07 08:25:39;;;;;;;2.40;1.42;;;22.40;70.00;;;;;;4207860;28;20460;-48
2021/08/07 08:28:02;;;;;;;3.70;1.63;;;22.30;69.80;;;;;;4208908;28;20047;-47
2021/08/07 08:30:26;;;;;;;5.43;1.98;;;22.40;69.90;;;;;;4209969;28;20065;-51
2021/08/07 08:32:48;;;;;;;5.57;1.80;;;22.40;69.60;;;;;;4208777;28;20134;-51
2021/08/07 08:35:11;;;;;;;5.65;1.63;;;22.40;69.40;;;;;;4207756;28;20147;-49
2021/08/07 08:37:34;;;;;;;5.32;1.67;;;22.40;68.90;;;;;;4199491;28;20048;-50
2021/08/07 08:39:56;;;;;;;5.82;1.67;;;22.40;68.80;;;;;;4208625;28;20079;-53
2021/08/07 08:42:21;;;;;;;3.90;1.58;;;22.40;68.90;;;;;;4209739;28;20742;-46
2021/08/07 08:44:44;;;;;;;5.50;1.95;;;22.40;68.50;;;;;;4209772;28;20131;-47
2021/08/07 08:47:08;;;;;;;4.40;1.75;;;22.40;68.30;;;;;;4208519;28;20094;-47
2021/08/07 08:49:31;;;;;;;2.47;1.20;;;22.40;68.50;;;;;;4208796;28;20469;-51
2021/08/07 08:51:54;;;;;;;3.42;1.50;;;22.50;68.10;;;;;;4208012;28;20075;-49
2021/08/07 08:54:17;;;;;;;3.38;1.23;;;22.50;68.00;;;;;;4202290;28;20048;-49
2021/08/07 08:56:39;;;;;;;5.40;1.85;;;22.50;67.80;;;;;;4209834;28;20051;-46
2021/08/07 08:59:02;;;;;;;3.90;1.40;;;22.50;67.20;;;;;;4208319;28;20470;-50
2021/08/07 09:01:26;;;;;;;2.75;1.55;;;22.60;66.70;;;;;;4199100;28;20056;-48
2021/08/07 09:03:48;;;;;;;3.60;1.15;;;22.50;66.60;;;;;;4206723;28;20059;-50
2021/08/07 09:06:11;;;;;;;5.07;1.58;;;22.60;66.50;;;;;;4206120;28;20062;-46
2021/08/07 09:08:36;;;;;;;5.53;1.35;;;22.60;66.60;;;;;;4217439;27;20656;-46
2021/08/07 09:11:16;;;;;;;5.43;2.00;;;22.60;67.00;;;;;;4219659;28;20577;-49
2021/08/07 09:13:43;;;;;;;3.75;1.45;;;22.60;66.60;;;;;;4209820;28;20044;-47
2021/08/07 09:16:08;;;;;;;3.47;1.40;;;22.60;66.30;;;;;;4212932;28;20076;-47
2021/08/07 09:18:32;;;;;;;3.50;1.30;;;22.60;66.10;;;;;;4203291;28;20052;-48
2021/08/07 09:20:57;;;;;;;7.10;1.73;;;22.70;65.80;;;;;;4212338;28;20504;-48
2021/08/07 09:23:31;;;;;;;3.53;1.60;;;22.70;65.40;;;;;;4209832;28;20051;-49
2021/08/07 09:25:53;;;;;;;2.50;0.90;;;22.70;65.30;;;;;;4212791;28;20410;-47
2021/08/07 09:28:14;;;;;;;3.00;1.10;;;22.70;65.60;;;;;;4213686;28;20047;-46
2021/08/07 09:30:38;;;;;;;2.97;1.10;;;22.70;65.20;;;;;;4213883;28;20048;-47
2021/08/07 09:33:07;;;;;;;3.58;1.20;;;22.70;65.20;;;;;;4212089;28;20052;-46
2021/08/07 09:35:34;;;;;;;2.58;0.90;;;22.80;65.30;;;;;;4195980;28;20051;-45
2021/08/07 09:38:11;;;;;;;2.30;1.40;;;22.90;65.30;;;;;;4209811;28;20044;-48
2021/08/07 09:40:40;;;;;;;4.57;1.20;;;22.90;66.20;;;;;;4204808;28;20047;-48
2021/08/07 09:43:03;;;;;;;3.33;1.17;;;22.90;65.30;;;;;;4216914;28;20091;-46
2021/08/07 09:45:27;;;;;;;5.78;1.10;;;22.90;65.30;;;;;;4209783;28;20054;-50
2021/08/07 09:47:57;;;;;;;3.67;1.13;;;23.00;66.10;;;;;;4209673;28;20052;-47
2021/08/07 09:50:23;;;;;;;2.30;0.90;;;23.00;65.00;;;;;;4209366;28;20048;-51
2021/08/07 09:52:50;;;;;;;2.13;0.82;;;23.00;65.00;;;;;;4210769;28;20071;-48
2021/08/07 09:55:12;;;;;;;1.45;0.80;;;23.10;65.00;;;;;;4195538;28;20056;-52
2021/08/07 09:57:34;;;;;;;1.88;1.10;;;23.10;64.80;;;;;;4199587;28;20052;-47
2021/08/07 09:59:58;;;;;;;3.80;0.95;;;23.10;64.60;;;;;;4207532;28;20135;-50
2021/08/07 10:02:23;;;;;;;4.30;0.90;;;23.20;64.60;;;;;;4207138;28;20141;-45
2021/08/07 10:04:48;;;;;;;3.28;0.93;;;23.20;64.60;;;;;;4208143;28;20056;-46
2021/08/07 10:07:11;;;;;;;1.33;1.00;;;23.20;64.30;;;;;;4211783;28;20055;-49
2021/08/07 10:09:39;;;;;;;2.95;1.23;;;23.20;64.20;;;;;;4209525;28;20512;-47
2021/08/07 10:12:07;;;;;;;2.97;0.90;;;23.20;64.30;;;;;;4210566;28;20127;-45
2021/08/07 10:14:32;;;;;;;1.70;0.95;;;23.20;64.00;;;;;;4213517;28;20544;-44
2021/08/07 10:16:56;;;;;;;1.52;0.70;;;23.20;63.80;;;;;;4228395;28;20143;-50
2021/08/07 10:19:18;;;;;;;1.33;0.77;;;23.20;63.80;;;;;;4228543;28;20535;-48
2021/08/07 10:21:41;;;;;;;2.78;0.90;;;23.20;63.90;;;;;;4222949;28;20109;-45
2021/08/07 10:24:05;;;;;;;3.92;1.00;;;23.20;63.30;;;;;;4212414;28;20082;-47
2021/08/07 10:26:30;;;;;;;1.67;0.90;;;23.20;62.80;;;;;;4211135;28;20474;-45
2021/08/07 10:28:55;;;;;;;3.22;0.63;;;23.20;62.70;;;;;;4211501;28;20056;-49
2021/08/07 10:31:22;;;;;;;1.92;0.82;;;23.20;62.50;;;;;;4211302;28;20052;-46
2021/08/07 10:33:46;;;;;;;1.85;0.75;;;23.20;62.10;;;;;;4211352;28;20086;-48
2021/08/07 10:36:08;;;;;;;1.45;0.63;;;23.20;62.20;;;;;;4211389;28;20130;-52
2021/08/07 10:38:30;;;;;;;1.88;0.57;;;23.20;62.10;;;;;;4211296;28;20130;-45
2021/08/07 10:40:55;;;;;;;1.65;0.77;;;23.10;61.60;;;;;;4194640;28;20067;-48
2021/08/07 10:43:22;;;;;;;4.43;0.90;;;23.10;61.10;;;;;;4194619;28;20444;-47
2021/08/07 10:45:45;;;;;;;2.67;0.70;;;23.10;61.30;;;;;;4194608;28;20056;-49
2021/08/07 10:48:07;;;;;;;0.95;0.70;;;23.10;61.30;;;;;;4194344;28;20056;-44
2021/08/07 10:50:39;;;;;;;2.55;0.77;;;23.10;61.30;;;;;;4205959;28;20144;-44
2021/08/07 10:53:27;;;;;;;1.15;0.50;;;23.10;61.30;;;;;;4211257;28;20141;-46
2021/08/07 10:55:51;;;;;;;2.38;0.68;;;23.20;61.30;;;;;;4212332;28;20044;-45
2021/08/07 10:58:38;;;;;;;1.88;0.70;;;23.20;61.50;;;;;;4211446;28;20483;-46
2021/08/07 11:01:30;;;;;;;1.15;0.70;;;23.20;61.50;;;;;;4195631;28;20052;-50
2021/08/07 11:04:04;;;;;;;1.00;0.75;;;23.20;61.50;;;;;;4195857;28;20052;-45
2021/08/07 11:06:50;;;;;;;0.77;0.77;;;23.30;61.70;;;;;;4195614;28;20057;-48
2021/08/07 11:09:24;;;;;;;1.80;0.90;;;23.30;61.60;;;;;;4195667;28;20064;-51
2021/08/07 11:11:47;;;;;;;2.45;1.08;;;23.30;61.50;;;;;;4195808;28;20084;-47
2021/08/07 11:14:45;;;;;;;1.25;0.68;;;23.30;62.50;;;;;;4195815;28;20056;-47
2021/08/07 11:17:30;;;;;;;1.92;0.80;;;23.30;61.50;;;;;;4196276;28;20052;-47
2021/08/07 11:19:55;;;;;;;1.75;0.85;;;23.30;61.00;;;;;;4197088;28;20509;-47
2021/08/07 11:22:18;;;;;;;2.60;1.30;;;23.30;60.60;;;;;;4200964;28;20051;-46
2021/08/07 11:24:55;;;;;;;1.90;0.90;;;23.30;60.60;;;;;;4211180;28;20486;-51
2021/08/07 11:27:18;;;;;;;1.58;1.05;;;23.40;60.60;;;;;;4212125;28;20052;-46
2021/08/07 11:30:13;;;;;;;1.60;0.90;;;23.40;60.80;;;;;;4210897;28;20586;-48
2021/08/07 11:32:36;;;;;;;2.65;0.95;;;23.50;61.10;;;;;;4210521;28;20052;-47
2021/08/07 11:34:58;;;;;;;2.42;0.85;;;23.50;61.30;;;;;;4211226;28;20044;-51
2021/08/07 11:37:24;;;;;;;2.83;1.05;;;23.40;61.20;;;;;;4210812;28;20076;-46
2021/08/07 11:40:10;;;;;;;4.30;1.20;;;23.40;61.30;;;;;;4211660;28;20065;-49
2021/08/07 11:42:37;;;;;;;1.63;0.77;;;23.50;61.50;;;;;;4211754;28;20056;-52
2021/08/07 11:45:01;;;;;;;2.80;0.90;;;23.50;61.40;;;;;;4211105;28;20555;-49
2021/08/07 11:47:23;;;;;;;2.25;0.90;;;23.50;61.40;;;;;;4211659;28;20378;-51
2021/08/07 11:49:47;;;;;;;1.27;1.17;;;23.60;61.40;;;;;;4211931;28;20048;-49
2021/08/07 11:52:10;;;;;;;2.88;0.70;;;23.60;61.40;;;;;;4198889;28;20047;-52
2021/08/07 11:54:32;;;;;;;2.03;1.10;;;23.60;61.20;;;;;;4211751;28;20418;-52
2021/08/07 11:56:53;;;;;;;2.03;1.17;;;23.60;61.10;;;;;;4212048;28;20051;-50
2021/08/07 11:59:28;;;;;;;2.28;1.38;;;23.60;61.20;;;;;;4212256;28;20101;-51
2021/08/07 12:01:50;;;;;;;1.27;0.80;;;23.60;60.90;;;;;;4214758;28;20058;-52
2021/08/07 12:04:13;;;;;;;1.15;0.60;;;23.60;60.70;;;;;;4215261;28;20052;-48
2021/08/07 12:06:39;;;;;;;1.95;0.88;;;23.60;60.70;;;;;;4215151;28;20062;-46
2021/08/07 12:09:02;;;;;;;2.25;0.90;;;23.70;60.70;;;;;;4215324;28;20143;-47
2021/08/07 12:11:24;;;;;;;1.98;1.08;;;23.70;60.50;;;;;;4215156;28;20048;-46
2021/08/07 12:13:51;;;;;;;2.47;0.70;;;23.80;60.60;;;;;;4198083;28;20055;-48
2021/08/07 12:16:15;;;;;;;1.02;0.80;;;23.80;60.60;;;;;;4215801;28;20426;-48
2021/08/07 12:18:44;;;;;;;1.25;0.70;;;23.80;60.60;;;;;;4198338;28;20052;-48
2021/08/07 12:21:07;;;;;;;0.70;0.60;;;23.80;60.10;;;;;;4208549;28;20108;-49
2021/08/07 12:23:40;;;;;;;1.23;0.93;;;23.80;59.90;;;;;;4222730;28;20043;-51
2021/08/07 12:26:05;;;;;;;1.52;0.90;;;23.80;59.60;;;;;;4221334;28;20495;-46
2021/08/07 12:28:30;;;;;;;1.83;0.82;;;23.80;59.60;;;;;;4215048;28;20083;-49
2021/08/07 12:30:55;;;;;;;1.75;0.80;;;23.90;59.70;;;;;;4229551;28;20532;-49
2021/08/07 12:33:18;;;;;;;2.40;0.70;;;23.90;59.40;;;;;;4231647;28;20163;-46
2021/08/07 12:35:40;;;;;;;1.83;0.75;;;23.90;59.50;;;;;;4222209;28;20079;-46
2021/08/07 12:38:02;;;;;;;1.85;1.05;;;23.90;59.40;;;;;;4218007;28;20116;-47